sensor_id;sensor_type;location;lat;lon;timestamp;temperature;humidity
27858;DHT22;16852;51.446;6.528;2023-04-25T00:01:28;8.80;99.90
27858;DHT22;16852;51.446;6.528;2023-04-25T00:03:29;8.80;99.90
27858;DHT22;16852;51.446;6.528;2023-04-25T00:05:29;8.80;99.90
27858;DHT22;16852;51.446;6.528;2023-04-25T00:07:31;8.80;99.90
27858;DHT22;16852;51.446;6.528;2023-04-25T00:09:32;8.70;99.90
27858;DHT22;16852;51.446;6.528;2023-04-25T00:11:33;8.80;99.90
27858;DHT22;16852;51.446;6.528;2023-04-25T00:13:34;8.70;99.90
27858;DHT22;16852;51.446;6.528;2023-04-25T00:15:35;8.70;99.90
27858;DHT22;16852;51.446;6.528;2023-04-25T00:17:36;8.70;99.90
27858;DHT22;16852;51.446;6.528;2023-04-25T00:19:38;8.70;99.90
27858;DHT22;16852;51.446;6.528;2023-04-25T00:21:39;8.70;99.90
27858;DHT22;16852;51.446;6.528;2023-04-25T00:23:41;8.70;99.90
27858;DHT22;16852;51.446;6.528;2023-04-25T00:25:41;8.70;99.90
27858;DHT22;16852;51.446;6.528;2023-04-25T00:27:42;8.70;99.90
27858;DHT22;16852;51.446;6.528;2023-04-25T00:29:42;8.60;99.90
27858;DHT22;16852;51.446;6.528;2023-04-25T00:31:43;8.60;99.90
27858;DHT22;16852;51.446;6.528;2023-04-25T00:33:44;8.60;99.90
27858;DHT22;16852;51.446;6.528;2023-04-25T00:35:44;8.60;99.90
27858;DHT22;16852;51.446;6.528;2023-04-25T00:37:45;8.60;99.90
27858;DHT22;16852;51.446;6.528;2023-04-25T00:39:46;8.60;99.90
27858;DHT22;16852;51.446;6.528;2023-04-25T00:41:46;8.60;99.90
27858;DHT22;16852;51.446;6.528;2023-04-25T00:43:48;8.60;99.90
27858;DHT22;16852;51.446;6.528;2023-04-25T00:45:50;8.60;99.90
27858;DHT22;16852;51.446;6.528;2023-04-25T00:47:52;8.60;99.90
27858;DHT22;16852;51.446;6.528;2023-04-25T00:49:53;8.60;99.90
27858;DHT22;16852;51.446;6.528;2023-04-25T00:51:54;8.60;99.90
27858;DHT22;16852;51.446;6.528;2023-04-25T00:53:55;8.60;99.90
27858;DHT22;16852;51.446;6.528;2023-04-25T00:55:55;8.60;99.90
27858;DHT22;16852;51.446;6.528;2023-04-25T00:57:56;8.60;99.90
27858;DHT22;16852;51.446;6.528;2023-04-25T00:59:58;8.60;99.90
27858;DHT22;16852;51.446;6.528;2023-04-25T01:01:59;8.60;99.90
27858;DHT22;16852;51.446;6.528;2023-04-25T01:04:01;8.60;99.90
27858;DHT22;16852;51.446;6.528;2023-04-25T01:06:02;8.60;99.90
27858;DHT22;16852;51.446;6.528;2023-04-25T01:08:03;8.60;99.90
27858;DHT22;16852;51.446;6.528;2023-04-25T01:10:05;8.50;99.90
27858;DHT22;16852;51.446;6.528;2023-04-25T01:12:06;8.50;99.90
27858;DHT22;16852;51.446;6.528;2023-04-25T01:14:07;8.50;99.90
27858;DHT22;16852;51.446;6.528;2023-04-25T01:16:07;8.50;99.90
27858;DHT22;16852;51.446;6.528;2023-04-25T01:18:08;8.50;99.90
27858;DHT22;16852;51.446;6.528;2023-04-25T01:20:09;8.50;99.90
27858;DHT22;16852;51.446;6.528;2023-04-25T01:22:11;8.40;99.90
27858;DHT22;16852;51.446;6.528;2023-04-25T01:24:12;8.50;99.90
27858;DHT22;16852;51.446;6.528;2023-04-25T01:26:13;8.50;99.90
27858;DHT22;16852;51.446;6.528;2023-04-25T01:28:14;8.50;99.90
27858;DHT22;16852;51.446;6.528;2023-04-25T01:30:15;8.50;99.90
27858;DHT22;16852;51.446;6.528;2023-04-25T01:32:16;8.60;99.90
27858;DHT22;16852;51.446;6.528;2023-04-25T01:34:17;8.60;99.90
27858;DHT22;16852;51.446;6.528;2023-04-25T01:36:17;8.60;99.90
27858;DHT22;16852;51.446;6.528;2023-04-25T01:38:18;8.50;99.90
27858;DHT22;16852;51.446;6.528;2023-04-25T01:40:20;8.50;99.90
27858;DHT22;16852;51.446;6.528;2023-04-25T01:42:21;8.50;99.90
27858;DHT22;16852;51.446;6.528;2023-04-25T01:44:22;8.50;99.90
27858;DHT22;16852;51.446;6.528;2023-04-25T01:46:23;8.40;99.90
27858;DHT22;16852;51.446;6.528;2023-04-25T01:48:23;8.50;99.90
27858;DHT22;16852;51.446;6.528;2023-04-25T01:50:25;8.40;99.90
27858;DHT22;16852;51.446;6.528;2023-04-25T01:52:25;8.50;99.90
27858;DHT22;16852;51.446;6.528;2023-04-25T01:54:26;8.50;99.90
27858;DHT22;16852;51.446;6.528;2023-04-25T01:56:36;8.50;99.90
27858;DHT22;16852;51.446;6.528;2023-04-25T01:58:36;8.40;99.90
27858;DHT22;16852;51.446;6.528;2023-04-25T02:00:37;8.40;99.90
27858;DHT22;16852;51.446;6.528;2023-04-25T02:02:39;8.40;99.90
27858;DHT22;16852;51.446;6.528;2023-04-25T02:04:39;8.50;99.90
27858;DHT22;16852;51.446;6.528;2023-04-25T02:06:40;8.40;99.90
27858;DHT22;16852;51.446;6.528;2023-04-25T02:08:40;8.40;99.90
27858;DHT22;16852;51.446;6.528;2023-04-25T02:10:41;8.40;99.90
27858;DHT22;16852;51.446;6.528;2023-04-25T02:12:42;8.40;99.90
27858;DHT22;16852;51.446;6.528;2023-04-25T02:14:42;8.40;99.90
27858;DHT22;16852;51.446;6.528;2023-04-25T02:16:43;8.40;99.90
27858;DHT22;16852;51.446;6.528;2023-04-25T02:18:44;8.40;99.90
27858;DHT22;16852;51.446;6.528;2023-04-25T02:20:45;8.50;99.90
27858;DHT22;16852;51.446;6.528;2023-04-25T02:22:46;8.50;99.90
27858;DHT22;16852;51.446;6.528;2023-04-25T02:24:46;8.40;99.90
27858;DHT22;16852;51.446;6.528;2023-04-25T02:26:47;8.40;99.90
27858;DHT22;16852;51.446;6.528;2023-04-25T02:28:50;8.40;99.90
27858;DHT22;16852;51.446;6.528;2023-04-25T02:30:50;8.40;99.90
27858;DHT22;16852;51.446;6.528;2023-04-25T02:32:51;8.50;99.90
27858;DHT22;16852;51.446;6.528;2023-04-25T02:34:52;8.40;99.90
27858;DHT22;16852;51.446;6.528;2023-04-25T02:36:52;8.40;99.90
27858;DHT22;16852;51.446;6.528;2023-04-25T02:38:53;8.40;99.90
27858;DHT22;16852;51.446;6.528;2023-04-25T02:40:53;8.40;99.90
27858;DHT22;16852;51.446;6.528;2023-04-25T02:42:54;8.40;99.90
27858;DHT22;16852;51.446;6.528;2023-04-25T02:44:55;8.40;99.90
27858;DHT22;16852;51.446;6.528;2023-04-25T02:46:55;8.50;99.90
27858;DHT22;16852;51.446;6.528;2023-04-25T02:48:56;8.40;99.90
27858;DHT22;16852;51.446;6.528;2023-04-25T02:50:57;8.40;99.90
27858;DHT22;16852;51.446;6.528;2023-04-25T02:52:57;8.50;99.90
27858;DHT22;16852;51.446;6.528;2023-04-25T02:54:58;8.40;99.90
27858;DHT22;16852;51.446;6.528;2023-04-25T02:56:58;8.50;99.90
27858;DHT22;16852;51.446;6.528;2023-04-25T02:58:59;8.40;99.90
27858;DHT22;16852;51.446;6.528;2023-04-25T03:00:59;8.50;99.90
27858;DHT22;16852;51.446;6.528;2023-04-25T03:03:01;8.50;99.90
27858;DHT22;16852;51.446;6.528;2023-04-25T03:05:01;8.40;99.90
27858;DHT22;16852;51.446;6.528;2023-04-25T03:07:05;8.50;99.90
27858;DHT22;16852;51.446;6.528;2023-04-25T03:09:05;8.50;99.90
27858;DHT22;16852;51.446;6.528;2023-04-25T03:11:06;8.50;99.90
27858;DHT22;16852;51.446;6.528;2023-04-25T03:13:07;8.40;99.90
27858;DHT22;16852;51.446;6.528;2023-04-25T03:15:08;8.40;99.90
27858;DHT22;16852;51.446;6.528;2023-04-25T03:17:08;8.40;99.90
27858;DHT22;16852;51.446;6.528;2023-04-25T03:19:09;8.40;99.90
27858;DHT22;16852;51.446;6.528;2023-04-25T03:21:09;8.30;99.90
27858;DHT22;16852;51.446;6.528;2023-04-25T03:23:10;8.30;99.90
27858;DHT22;16852;51.446;6.528;2023-04-25T03:25:10;8.20;99.90
27858;DHT22;16852;51.446;6.528;2023-04-25T03:27:11;8.20;99.90
27858;DHT22;16852;51.446;6.528;2023-04-25T03:29:12;8.20;99.90
27858;DHT22;16852;51.446;6.528;2023-04-25T03:31:12;8.20;99.90
27858;DHT22;16852;51.446;6.528;2023-04-25T03:33:13;8.20;99.90
27858;DHT22;16852;51.446;6.528;2023-04-25T03:35:13;8.10;99.90
27858;DHT22;16852;51.446;6.528;2023-04-25T03:37:14;8.10;99.90
27858;DHT22;16852;51.446;6.528;2023-04-25T03:39:15;8.10;99.90
27858;DHT22;16852;51.446;6.528;2023-04-25T03:41:16;8.10;99.90
27858;DHT22;16852;51.446;6.528;2023-04-25T03:43:16;8.10;99.90
27858;DHT22;16852;51.446;6.528;2023-04-25T03:45:17;8.10;99.90
27858;DHT22;16852;51.446;6.528;2023-04-25T03:47:17;8.10;99.90
27858;DHT22;16852;51.446;6.528;2023-04-25T03:49:18;8.00;99.90
27858;DHT22;16852;51.446;6.528;2023-04-25T03:51:19;8.00;99.90
27858;DHT22;16852;51.446;6.528;2023-04-25T03:53:19;8.00;99.90
27858;DHT22;16852;51.446;6.528;2023-04-25T03:55:20;8.00;99.90
27858;DHT22;16852;51.446;6.528;2023-04-25T03:57:21;8.00;99.90
27858;DHT22;16852;51.446;6.528;2023-04-25T03:59:21;8.00;99.90
27858;DHT22;16852;51.446;6.528;2023-04-25T04:01:22;7.90;99.90
27858;DHT22;16852;51.446;6.528;2023-04-25T04:03:22;7.90;99.90
27858;DHT22;16852;51.446;6.528;2023-04-25T04:05:23;7.90;99.90
27858;DHT22;16852;51.446;6.528;2023-04-25T04:07:23;7.90;99.90
27858;DHT22;16852;51.446;6.528;2023-04-25T04:09:24;7.90;99.90
27858;DHT22;16852;51.446;6.528;2023-04-25T04:11:25;7.90;99.90
27858;DHT22;16852;51.446;6.528;2023-04-25T04:13:26;7.80;99.90
27858;DHT22;16852;51.446;6.528;2023-04-25T04:15:27;7.80;99.90
27858;DHT22;16852;51.446;6.528;2023-04-25T04:17:28;7.80;99.90
27858;DHT22;16852;51.446;6.528;2023-04-25T04:19:28;7.80;99.90
27858;DHT22;16852;51.446;6.528;2023-04-25T04:21:29;7.80;99.90
27858;DHT22;16852;51.446;6.528;2023-04-25T04:23:30;7.70;99.90
27858;DHT22;16852;51.446;6.528;2023-04-25T04:25:31;7.60;99.90
27858;DHT22;16852;51.446;6.528;2023-04-25T04:27:32;7.50;99.90
27858;DHT22;16852;51.446;6.528;2023-04-25T04:29:32;7.60;99.90
27858;DHT22;16852;51.446;6.528;2023-04-25T04:31:33;7.60;99.90
27858;DHT22;16852;51.446;6.528;2023-04-25T04:33:33;7.50;99.90
27858;DHT22;16852;51.446;6.528;2023-04-25T04:35:35;7.60;99.90
27858;DHT22;16852;51.446;6.528;2023-04-25T04:37:35;7.50;99.90
27858;DHT22;16852;51.446;6.528;2023-04-25T04:39:37;7.50;99.90
27858;DHT22;16852;51.446;6.528;2023-04-25T04:41:37;7.50;99.90
27858;DHT22;16852;51.446;6.528;2023-04-25T04:43:38;7.60;99.90
27858;DHT22;16852;51.446;6.528;2023-04-25T04:45:39;7.60;99.90
27858;DHT22;16852;51.446;6.528;2023-04-25T04:47:40;7.60;99.90
27858;DHT22;16852;51.446;6.528;2023-04-25T04:49:41;7.60;99.90
27858;DHT22;16852;51.446;6.528;2023-04-25T04:51:41;7.60;99.90
27858;DHT22;16852;51.446;6.528;2023-04-25T04:53:44;7.60;99.90
27858;DHT22;16852;51.446;6.528;2023-04-25T04:55:45;7.60;99.90
27858;DHT22;16852;51.446;6.528;2023-04-25T04:57:46;7.60;99.90
27858;DHT22;16852;51.446;6.528;2023-04-25T04:59:47;7.60;99.90
27858;DHT22;16852;51.446;6.528;2023-04-25T05:01:47;7.60;99.90
27858;DHT22;16852;51.446;6.528;2023-04-25T05:03:48;7.60;99.90
27858;DHT22;16852;51.446;6.528;2023-04-25T05:05:48;7.60;99.90
27858;DHT22;16852;51.446;6.528;2023-04-25T05:07:49;7.60;99.90
27858;DHT22;16852;51.446;6.528;2023-04-25T05:09:49;7.60;99.90
27858;DHT22;16852;51.446;6.528;2023-04-25T05:11:50;7.60;99.90
27858;DHT22;16852;51.446;6.528;2023-04-25T05:13:53;7.60;99.90
27858;DHT22;16852;51.446;6.528;2023-04-25T05:15:54;7.60;99.90
27858;DHT22;16852;51.446;6.528;2023-04-25T05:17:55;7.60;99.90
27858;DHT22;16852;51.446;6.528;2023-04-25T05:19:55;7.60;99.90
27858;DHT22;16852;51.446;6.528;2023-04-25T05:21:56;7.70;99.90
27858;DHT22;16852;51.446;6.528;2023-04-25T05:23:57;7.70;99.90
27858;DHT22;16852;51.446;6.528;2023-04-25T05:25:57;7.80;99.90
27858;DHT22;16852;51.446;6.528;2023-04-25T05:27:58;7.70;99.90
27858;DHT22;16852;51.446;6.528;2023-04-25T05:29:58;7.80;99.90
27858;DHT22;16852;51.446;6.528;2023-04-25T05:31:59;7.90;99.90
27858;DHT22;16852;51.446;6.528;2023-04-25T05:34:00;7.90;99.90
27858;DHT22;16852;51.446;6.528;2023-04-25T05:36:00;7.80;99.90
27858;DHT22;16852;51.446;6.528;2023-04-25T05:38:01;7.90;99.90
27858;DHT22;16852;51.446;6.528;2023-04-25T05:40:02;7.80;99.90
27858;DHT22;16852;51.446;6.528;2023-04-25T05:42:06;7.90;99.90
27858;DHT22;16852;51.446;6.528;2023-04-25T05:44:07;7.80;99.90
27858;DHT22;16852;51.446;6.528;2023-04-25T05:46:08;7.90;99.90
27858;DHT22;16852;51.446;6.528;2023-04-25T05:48:08;7.90;99.90
27858;DHT22;16852;51.446;6.528;2023-04-25T05:50:09;7.90;99.90
27858;DHT22;16852;51.446;6.528;2023-04-25T05:52:10;7.90;99.90
27858;DHT22;16852;51.446;6.528;2023-04-25T05:54:10;8.00;99.90
27858;DHT22;16852;51.446;6.528;2023-04-25T05:56:11;7.90;99.90
27858;DHT22;16852;51.446;6.528;2023-04-25T05:58:12;8.00;99.90
27858;DHT22;16852;51.446;6.528;2023-04-25T06:00:13;8.10;99.90
27858;DHT22;16852;51.446;6.528;2023-04-25T06:02:15;8.10;99.90
27858;DHT22;16852;51.446;6.528;2023-04-25T06:04:15;8.10;99.90
27858;DHT22;16852;51.446;6.528;2023-04-25T06:06:16;8.20;99.90
27858;DHT22;16852;51.446;6.528;2023-04-25T06:08:17;8.20;99.90
27858;DHT22;16852;51.446;6.528;2023-04-25T06:10:17;8.20;99.90
27858;DHT22;16852;51.446;6.528;2023-04-25T06:12:18;8.20;99.90
27858;DHT22;16852;51.446;6.528;2023-04-25T06:14:19;8.20;99.90
27858;DHT22;16852;51.446;6.528;2023-04-25T06:16:19;8.30;99.90
27858;DHT22;16852;51.446;6.528;2023-04-25T06:18:20;8.30;99.90
27858;DHT22;16852;51.446;6.528;2023-04-25T06:20:21;8.30;99.90
27858;DHT22;16852;51.446;6.528;2023-04-25T06:22:24;8.40;99.90
27858;DHT22;16852;51.446;6.528;2023-04-25T06:24:24;8.50;99.90
27858;DHT22;16852;51.446;6.528;2023-04-25T06:26:25;8.60;99.90
27858;DHT22;16852;51.446;6.528;2023-04-25T06:28:26;8.60;99.90
27858;DHT22;16852;51.446;6.528;2023-04-25T06:30:26;8.70;99.90
27858;DHT22;16852;51.446;6.528;2023-04-25T06:32:27;8.80;99.90
27858;DHT22;16852;51.446;6.528;2023-04-25T06:34:30;8.90;99.90
27858;DHT22;16852;51.446;6.528;2023-04-25T06:36:30;8.90;99.90
27858;DHT22;16852;51.446;6.528;2023-04-25T06:38:31;9.10;99.90
27858;DHT22;16852;51.446;6.528;2023-04-25T06:40:31;9.20;99.90
27858;DHT22;16852;51.446;6.528;2023-04-25T06:42:32;9.40;99.90
27858;DHT22;16852;51.446;6.528;2023-04-25T06:44:33;9.60;99.90
27858;DHT22;16852;51.446;6.528;2023-04-25T06:46:33;9.90;99.90
27858;DHT22;16852;51.446;6.528;2023-04-25T06:48:34;10.20;99.90
27858;DHT22;16852;51.446;6.528;2023-04-25T06:50:34;10.40;99.90
27858;DHT22;16852;51.446;6.528;2023-04-25T06:52:35;10.50;99.90
27858;DHT22;16852;51.446;6.528;2023-04-25T06:54:35;10.70;99.90
27858;DHT22;16852;51.446;6.528;2023-04-25T06:56:36;11.00;99.90
27858;DHT22;16852;51.446;6.528;2023-04-25T06:58:36;11.20;99.90
27858;DHT22;16852;51.446;6.528;2023-04-25T07:00:37;11.30;99.90
27858;DHT22;16852;51.446;6.528;2023-04-25T07:02:38;11.50;99.90
27858;DHT22;16852;51.446;6.528;2023-04-25T07:04:38;11.60;99.90
27858;DHT22;16852;51.446;6.528;2023-04-25T07:06:39;11.50;99.90
27858;DHT22;16852;51.446;6.528;2023-04-25T07:08:42;11.40;99.90
27858;DHT22;16852;51.446;6.528;2023-04-25T07:10:43;11.40;99.90
27858;DHT22;16852;51.446;6.528;2023-04-25T07:12:44;11.40;99.90
27858;DHT22;16852;51.446;6.528;2023-04-25T07:14:44;11.50;99.90
27858;DHT22;16852;51.446;6.528;2023-04-25T07:16:45;11.50;99.90
27858;DHT22;16852;51.446;6.528;2023-04-25T07:18:46;11.60;99.90
27858;DHT22;16852;51.446;6.528;2023-04-25T07:20:46;11.60;99.90
27858;DHT22;16852;51.446;6.528;2023-04-25T07:22:47;11.80;99.90
27858;DHT22;16852;51.446;6.528;2023-04-25T07:24:47;11.90;99.90
27858;DHT22;16852;51.446;6.528;2023-04-25T07:26:48;12.00;99.90
27858;DHT22;16852;51.446;6.528;2023-04-25T07:28:49;12.10;99.90
27858;DHT22;16852;51.446;6.528;2023-04-25T07:30:51;12.10;99.90
27858;DHT22;16852;51.446;6.528;2023-04-25T07:32:52;12.30;99.90
27858;DHT22;16852;51.446;6.528;2023-04-25T07:34:52;12.40;99.90
27858;DHT22;16852;51.446;6.528;2023-04-25T07:36:53;12.60;99.90
27858;DHT22;16852;51.446;6.528;2023-04-25T07:38:54;12.70;99.90
27858;DHT22;16852;51.446;6.528;2023-04-25T07:40:54;12.80;99.90
27858;DHT22;16852;51.446;6.528;2023-04-25T07:42:55;12.80;99.90
27858;DHT22;16852;51.446;6.528;2023-04-25T07:44:55;12.90;99.90
27858;DHT22;16852;51.446;6.528;2023-04-25T07:46:56;12.90;99.90
27858;DHT22;16852;51.446;6.528;2023-04-25T07:48:57;13.00;99.90
27858;DHT22;16852;51.446;6.528;2023-04-25T07:50:57;13.10;99.90
27858;DHT22;16852;51.446;6.528;2023-04-25T07:52:58;13.20;99.90
27858;DHT22;16852;51.446;6.528;2023-04-25T07:54:58;13.30;99.90
27858;DHT22;16852;51.446;6.528;2023-04-25T07:56:59;13.40;99.90
27858;DHT22;16852;51.446;6.528;2023-04-25T07:59:00;13.50;99.90
27858;DHT22;16852;51.446;6.528;2023-04-25T08:01:00;13.60;99.90
27858;DHT22;16852;51.446;6.528;2023-04-25T08:03:01;13.60;99.90
27858;DHT22;16852;51.446;6.528;2023-04-25T08:05:03;13.70;99.90
27858;DHT22;16852;51.446;6.528;2023-04-25T08:07:04;13.80;99.90
27858;DHT22;16852;51.446;6.528;2023-04-25T08:09:04;13.90;99.90
27858;DHT22;16852;51.446;6.528;2023-04-25T08:11:05;13.90;99.90
27858;DHT22;16852;51.446;6.528;2023-04-25T08:13:05;14.00;99.90
27858;DHT22;16852;51.446;6.528;2023-04-25T08:15:06;14.00;99.90
27858;DHT22;16852;51.446;6.528;2023-04-25T08:17:07;14.00;99.90
27858;DHT22;16852;51.446;6.528;2023-04-25T08:19:08;13.90;99.90
27858;DHT22;16852;51.446;6.528;2023-04-25T08:21:08;13.80;99.90
27858;DHT22;16852;51.446;6.528;2023-04-25T08:23:11;13.70;99.90
27858;DHT22;16852;51.446;6.528;2023-04-25T08:25:12;13.60;99.90
27858;DHT22;16852;51.446;6.528;2023-04-25T08:27:13;13.60;99.90
27858;DHT22;16852;51.446;6.528;2023-04-25T08:29:13;13.50;99.90
27858;DHT22;16852;51.446;6.528;2023-04-25T08:31:14;13.40;99.90
27858;DHT22;16852;51.446;6.528;2023-04-25T08:33:15;13.40;99.90
27858;DHT22;16852;51.446;6.528;2023-04-25T08:35:15;13.30;99.90
27858;DHT22;16852;51.446;6.528;2023-04-25T08:37:17;13.30;99.90
27858;DHT22;16852;51.446;6.528;2023-04-25T08:39:20;13.40;99.90
27858;DHT22;16852;51.446;6.528;2023-04-25T08:41:21;13.50;99.90
27858;DHT22;16852;51.446;6.528;2023-04-25T08:43:23;13.60;99.90
27858;DHT22;16852;51.446;6.528;2023-04-25T08:45:27;13.60;99.90
27858;DHT22;16852;51.446;6.528;2023-04-25T08:47:30;13.70;99.90
27858;DHT22;16852;51.446;6.528;2023-04-25T08:49:33;13.70;99.90
27858;DHT22;16852;51.446;6.528;2023-04-25T08:51:36;13.70;99.90
27858;DHT22;16852;51.446;6.528;2023-04-25T08:53:41;13.80;99.90
27858;DHT22;16852;51.446;6.528;2023-04-25T08:55:43;13.90;99.90
27858;DHT22;16852;51.446;6.528;2023-04-25T08:57:44;14.00;99.90
27858;DHT22;16852;51.446;6.528;2023-04-25T08:59:46;14.00;99.90
27858;DHT22;16852;51.446;6.528;2023-04-25T09:01:47;14.00;99.90
27858;DHT22;16852;51.446;6.528;2023-04-25T09:03:49;14.10;99.90
27858;DHT22;16852;51.446;6.528;2023-04-25T09:05:51;14.20;99.90
27858;DHT22;16852;51.446;6.528;2023-04-25T09:07:51;14.20;99.90
27858;DHT22;16852;51.446;6.528;2023-04-25T09:09:52;14.20;99.90
27858;DHT22;16852;51.446;6.528;2023-04-25T09:11:54;14.20;99.90
27858;DHT22;16852;51.446;6.528;2023-04-25T09:14:11;13.90;99.90
27858;DHT22;16852;51.446;6.528;2023-04-25T09:16:13;13.80;99.90
27858;DHT22;16852;51.446;6.528;2023-04-25T09:18:24;13.80;99.90
27858;DHT22;16852;51.446;6.528;2023-04-25T09:20:26;13.80;99.90
27858;DHT22;16852;51.446;6.528;2023-04-25T09:22:26;13.80;99.90
27858;DHT22;16852;51.446;6.528;2023-04-25T09:24:34;13.60;99.90
27858;DHT22;16852;51.446;6.528;2023-04-25T09:26:35;13.30;99.90
27858;DHT22;16852;51.446;6.528;2023-04-25T09:28:36;13.20;99.90
27858;DHT22;16852;51.446;6.528;2023-04-25T09:30:38;13.10;99.90
27858;DHT22;16852;51.446;6.528;2023-04-25T09:32:38;13.00;99.90
27858;DHT22;16852;51.446;6.528;2023-04-25T09:34:43;12.80;99.90
27858;DHT22;16852;51.446;6.528;2023-04-25T09:36:44;12.80;99.90
27858;DHT22;16852;51.446;6.528;2023-04-25T09:38:46;12.70;99.90
27858;DHT22;16852;51.446;6.528;2023-04-25T09:40:47;12.60;99.90
27858;DHT22;16852;51.446;6.528;2023-04-25T09:42:50;12.60;99.90
27858;DHT22;16852;51.446;6.528;2023-04-25T09:44:55;12.60;99.90
27858;DHT22;16852;51.446;6.528;2023-04-25T09:46:55;12.60;99.90
27858;DHT22;16852;51.446;6.528;2023-04-25T09:48:57;12.60;99.90
27858;DHT22;16852;51.446;6.528;2023-04-25T09:51:08;12.60;99.90
27858;DHT22;16852;51.446;6.528;2023-04-25T09:53:09;12.50;99.90
27858;DHT22;16852;51.446;6.528;2023-04-25T09:55:10;12.50;99.90
27858;DHT22;16852;51.446;6.528;2023-04-25T09:57:13;12.50;99.90
27858;DHT22;16852;51.446;6.528;2023-04-25T09:59:15;12.60;99.90
27858;DHT22;16852;51.446;6.528;2023-04-25T10:01:16;12.70;99.90
27858;DHT22;16852;51.446;6.528;2023-04-25T10:03:20;12.80;99.90
27858;DHT22;16852;51.446;6.528;2023-04-25T10:05:23;12.90;99.90
27858;DHT22;16852;51.446;6.528;2023-04-25T10:07:28;12.90;99.90
27858;DHT22;16852;51.446;6.528;2023-04-25T10:09:32;13.00;99.90
27858;DHT22;16852;51.446;6.528;2023-04-25T10:11:36;13.00;99.90
27858;DHT22;16852;51.446;6.528;2023-04-25T10:13:38;12.90;99.90
27858;DHT22;16852;51.446;6.528;2023-04-25T10:15:39;12.80;99.90
27858;DHT22;16852;51.446;6.528;2023-04-25T10:17:40;12.80;99.90
27858;DHT22;16852;51.446;6.528;2023-04-25T10:19:41;12.70;99.90
27858;DHT22;16852;51.446;6.528;2023-04-25T10:21:51;12.70;99.90
27858;DHT22;16852;51.446;6.528;2023-04-25T10:23:52;12.70;99.90
27858;DHT22;16852;51.446;6.528;2023-04-25T10:25:54;12.70;99.90
27858;DHT22;16852;51.446;6.528;2023-04-25T10:27:55;12.70;99.90
27858;DHT22;16852;51.446;6.528;2023-04-25T10:30:07;12.70;99.90
27858;DHT22;16852;51.446;6.528;2023-04-25T10:32:11;12.60;99.90
27858;DHT22;16852;51.446;6.528;2023-04-25T10:34:11;12.70;99.90
27858;DHT22;16852;51.446;6.528;2023-04-25T10:36:14;12.70;99.90
27858;DHT22;16852;51.446;6.528;2023-04-25T10:38:15;12.70;99.90
27858;DHT22;16852;51.446;6.528;2023-04-25T10:40:22;12.70;99.90
27858;DHT22;16852;51.446;6.528;2023-04-25T10:42:23;12.60;99.90
27858;DHT22;16852;51.446;6.528;2023-04-25T10:44:30;12.50;99.90
27858;DHT22;16852;51.446;6.528;2023-04-25T10:46:32;12.50;99.90
27858;DHT22;16852;51.446;6.528;2023-04-25T10:48:35;12.50;99.90
27858;DHT22;16852;51.446;6.528;2023-04-25T10:50:39;12.50;99.90
27858;DHT22;16852;51.446;6.528;2023-04-25T10:52:40;12.50;99.90
27858;DHT22;16852;51.446;6.528;2023-04-25T10:56:48;12.60;99.90
27858;DHT22;16852;51.446;6.528;2023-04-25T10:58:50;12.60;99.90
27858;DHT22;16852;51.446;6.528;2023-04-25T11:00:51;12.70;99.90
27858;DHT22;16852;51.446;6.528;2023-04-25T11:02:53;12.80;99.90
27858;DHT22;16852;51.446;6.528;2023-04-25T11:04:57;12.80;99.90
27858;DHT22;16852;51.446;6.528;2023-04-25T11:07:23;12.80;99.90
27858;DHT22;16852;51.446;6.528;2023-04-25T11:09:27;12.90;99.90
27858;DHT22;16852;51.446;6.528;2023-04-25T11:11:29;12.70;99.90
27858;DHT22;16852;51.446;6.528;2023-04-25T11:13:29;12.70;99.90
27858;DHT22;16852;51.446;6.528;2023-04-25T11:15:30;12.70;99.90
27858;DHT22;16852;51.446;6.528;2023-04-25T11:17:31;12.60;99.90
27858;DHT22;16852;51.446;6.528;2023-04-25T11:19:32;12.50;99.90
27858;DHT22;16852;51.446;6.528;2023-04-25T11:21:32;12.50;99.90
27858;DHT22;16852;51.446;6.528;2023-04-25T11:23:34;12.50;99.90
27858;DHT22;16852;51.446;6.528;2023-04-25T11:25:35;12.50;99.90
27858;DHT22;16852;51.446;6.528;2023-04-25T11:27:56;12.50;99.90
27858;DHT22;16852;51.446;6.528;2023-04-25T11:29:57;12.40;99.90
27858;DHT22;16852;51.446;6.528;2023-04-25T11:31:58;12.30;99.90
27858;DHT22;16852;51.446;6.528;2023-04-25T11:33:59;12.30;99.90
27858;DHT22;16852;51.446;6.528;2023-04-25T11:36:00;12.20;99.90
27858;DHT22;16852;51.446;6.528;2023-04-25T11:38:01;12.20;99.90
27858;DHT22;16852;51.446;6.528;2023-04-25T11:40:03;12.00;99.90
27858;DHT22;16852;51.446;6.528;2023-04-25T11:42:06;12.00;99.90
27858;DHT22;16852;51.446;6.528;2023-04-25T11:44:07;12.00;99.90
27858;DHT22;16852;51.446;6.528;2023-04-25T11:46:08;12.00;99.90
27858;DHT22;16852;51.446;6.528;2023-04-25T11:48:08;11.90;99.90
27858;DHT22;16852;51.446;6.528;2023-04-25T11:50:09;11.90;99.90
27858;DHT22;16852;51.446;6.528;2023-04-25T11:52:10;11.90;99.90
27858;DHT22;16852;51.446;6.528;2023-04-25T11:54:11;11.90;99.90
27858;DHT22;16852;51.446;6.528;2023-04-25T11:56:13;12.00;99.90
27858;DHT22;16852;51.446;6.528;2023-04-25T11:58:13;12.00;99.90
27858;DHT22;16852;51.446;6.528;2023-04-25T12:00:19;12.10;99.90
27858;DHT22;16852;51.446;6.528;2023-04-25T12:02:24;12.10;99.90
27858;DHT22;16852;51.446;6.528;2023-04-25T12:04:26;12.10;99.90
27858;DHT22;16852;51.446;6.528;2023-04-25T12:06:28;12.10;99.90
27858;DHT22;16852;51.446;6.528;2023-04-25T12:08:28;12.10;99.90
27858;DHT22;16852;51.446;6.528;2023-04-25T12:10:29;12.10;99.90
27858;DHT22;16852;51.446;6.528;2023-04-25T12:12:36;12.20;99.90
27858;DHT22;16852;51.446;6.528;2023-04-25T12:14:37;12.20;99.90
27858;DHT22;16852;51.446;6.528;2023-04-25T12:16:57;12.20;99.90
27858;DHT22;16852;51.446;6.528;2023-04-25T12:18:58;12.30;99.90
27858;DHT22;16852;51.446;6.528;2023-04-25T12:20:59;12.30;99.90
27858;DHT22;16852;51.446;6.528;2023-04-25T12:23:00;12.40;99.90
27858;DHT22;16852;51.446;6.528;2023-04-25T12:25:01;12.50;99.90
27858;DHT22;16852;51.446;6.528;2023-04-25T12:27:07;12.50;99.90
27858;DHT22;16852;51.446;6.528;2023-04-25T12:29:26;12.50;99.90
27858;DHT22;16852;51.446;6.528;2023-04-25T12:31:29;12.50;99.90
27858;DHT22;16852;51.446;6.528;2023-04-25T12:33:35;12.40;99.90
27858;DHT22;16852;51.446;6.528;2023-04-25T12:35:36;12.30;99.90
27858;DHT22;16852;51.446;6.528;2023-04-25T12:37:37;12.20;99.90
27858;DHT22;16852;51.446;6.528;2023-04-25T12:39:37;12.20;99.90
27858;DHT22;16852;51.446;6.528;2023-04-25T12:41:38;12.20;99.90
27858;DHT22;16852;51.446;6.528;2023-04-25T12:43:38;12.20;99.90
27858;DHT22;16852;51.446;6.528;2023-04-25T12:45:39;12.30;99.90
27858;DHT22;16852;51.446;6.528;2023-04-25T12:47:40;12.30;99.90
27858;DHT22;16852;51.446;6.528;2023-04-25T12:49:40;12.40;99.90
27858;DHT22;16852;51.446;6.528;2023-04-25T12:51:41;12.40;99.90
27858;DHT22;16852;51.446;6.528;2023-04-25T12:53:42;12.50;99.90
27858;DHT22;16852;51.446;6.528;2023-04-25T12:55:43;12.60;99.90
27858;DHT22;16852;51.446;6.528;2023-04-25T12:57:46;12.70;99.90